Guigues, Canada
Current Conditions -  °F | °C
As of 11:20 PM on Sunday 25 Jan 2015 (Local Time) from CYXR Reporting Station
Clear Clear  
Wind Chill: -23°   Ceiling: Unl
Heat Index: -11°   Visibility: 9mi
Dew Point: -15°   Wind: 5mph
Humidity: 84%   Direction: 210°SSW
Pressure: 30.1"   Gusts: NA
Location:  47.45°N, 79.43°W
Report Text: CYXR 260420Z AUTO 21004KT 9SM CLR M24/M26 A3010 RMK ICG PAST HR SLP224
Loading
Personal Weather Stations






























Interactive Weather Map New forecast layout! Learn more

10-Day Weather Forecast

Advertisements
Track Severe Weather on mobile